Anthem Of The Seas — C6BI7 — position and weather

sailwx.info

Track history (hours):
 
Tides and Currents Weather Stations Pressure Air Temp Water Temp Dewpoint Dewpoint Depression Visibility Wind Speed Wind Dir Waves Ship Positions

Anthem Of The Seas

Last reported at 2020-Sep-18 07:21 UTC. Time now 2020-Sep-18 07:44 UTC.
Position N 50°39' W 001°49'.

Length 348 m; draft 8.8 m.

Type: Passenger vessel. MMSI: 311000274.

Date/timePositionNaut miles runAvg speedWind from/ knotsBaromVisibWave heightAir tempDewpointWater temp
2020-Sep-18 07:21N 50°39' W 001°49'0 0.0
2020-Sep-18 06:57N 50°39' W 001°49'0 0.0
2020-Sep-18 04:57N 50°39' W 001°49'0 0.0
2020-Sep-18 02:57N 50°39' W 001°49'0 0.0
2020-Sep-18 01:27N 50°39' W 001°49'0 0.0
2020-Sep-18 00:57N 50°39' W 001°49'0 0.0
2020-Sep-17 19:27N 50°39' W 001°49'0 0.0
2020-Sep-17 16:57N 50°39' W 001°49'0 0.0
2020-Sep-17 15:27N 50°39' W 001°49'0 0.0
2020-Sep-17 14:27N 50°39' W 001°49'0 0.0
2020-Sep-17 11:57N 50°39' W 001°49'0 0.0
2020-Sep-17 07:57N 50°39' W 001°49'0 0.1
2020-Sep-17 07:27N 50°39' W 001°49'0 0.0
2020-Sep-17 06:57N 50°39' W 001°49'0 0.2
2020-Sep-17 06:27N 50°39' W 001°49'0 0.0
2020-Sep-17 03:27N 50°39' W 001°49'0 0.0
2020-Sep-17 02:57N 50°39' W 001°49'0 0.0
2020-Sep-17 01:27N 50°39' W 001°49'0 0.0
2020-Sep-17 00:51N 50°39' W 001°49'0 0.0
2020-Sep-17 00:27N 50°39' W 001°49'0 0.0
2020-Sep-16 23:57N 50°39' W 001°49'0 0.1
2020-Sep-16 20:27N 50°39' W 001°49'0 0.0
2020-Sep-16 18:27N 50°39' W 001°49'0 0.0
2020-Sep-16 17:57N 50°39' W 001°49'0 0.0
2020-Sep-16 16:57N 50°39' W 001°49'0 0.1
2020-Sep-16 16:27N 50°39' W 001°49'0 0.0
2020-Sep-16 11:57N 50°39' W 001°49'0 0.0
2020-Sep-16 06:57N 50°39' W 001°49'0 0.0
2020-Sep-16 04:57N 50°39' W 001°49'0 0.0
2020-Sep-16 04:27N 50°39' W 001°49'0 0.0
2020-Sep-16 03:57N 50°39' W 001°49'0 0.0
2020-Sep-16 02:57N 50°39' W 001°49'0 0.0
2020-Sep-15 23:57N 50°39' W 001°49'0 0.0
2020-Sep-15 23:27N 50°39' W 001°49'0 0.1
2020-Sep-15 22:27N 50°39' W 001°49'17 8.9
2020-Sep-15 20:30N 50°32' W 001°25'22 2.5
2020-Sep-15 11:36N 50°54' W 001°25'0 0.0
2020-Sep-15 09:28N 50°54' W 001°25'0 0.0
2020-Sep-15 07:12N 50°54' W 001°25'0 0.0
2020-Sep-15 05:30N 50°54' W 001°25'17 6.9
2020-Sep-15 03:00N 50°44' W 001°03'9 8.6
2020-Sep-15 02:00N 50°36' W 000°59'32 6.4
2020-Sep-14 21:00N 50°06' W 001°18'7 7.0
2020-Sep-14 20:00N 50°04' W 001°28'46 8.4
2020-Sep-14 14:31N 49°52' W 002°38'14 7.1
2020-Sep-14 12:30N 49°57' W 002°58'3313.2
2020-Sep-14 10:00N 50°11' W 002°12'31 9.0
2020-Sep-14 06:30N 50°39' W 001°49'0 0.0
2020-Sep-14 05:30N 50°39' W 001°49'0 0.0
2020-Sep-14 05:01N 50°39' W 001°49'0 0.0
2020-Sep-14 04:01N 50°39' W 001°49'0 0.1
2020-Sep-14 03:30N 50°39' W 001°49'0 0.1
2020-Sep-14 03:00N 50°39' W 001°49'0 0.0
2020-Sep-14 02:31N 50°39' W 001°49'0 0.0
2020-Sep-14 02:00N 50°39' W 001°49'0 0.0
2020-Sep-14 01:00N 50°39' W 001°49'0 0.0
2020-Sep-13 22:31N 50°39' W 001°49'0 0.0
2020-Sep-13 22:01N 50°39' W 001°49'0 0.0
2020-Sep-13 21:31N 50°39' W 001°49'0 0.0
2020-Sep-13 16:01N 50°39' W 001°49'0 0.0
2020-Sep-13 15:31N 50°39' W 001°49'0 0.0
2020-Sep-13 14:31N 50°39' W 001°49'0 0.0
2020-Sep-13 13:30N 50°39' W 001°49'0 0.0
2020-Sep-13 09:01N 50°39' W 001°49'0 0.0
2020-Sep-13 08:31N 50°39' W 001°49'0 0.0
2020-Sep-13 05:00N 50°39' W 001°49'0 0.0
2020-Sep-13 04:30N 50°39' W 001°49'0 0.0
2020-Sep-13 04:00N 50°39' W 001°49'0 0.0
2020-Sep-13 02:01N 50°39' W 001°49'0 0.0
2020-Sep-12 23:30N 50°39' W 001°49'0 0.0
2020-Sep-12 21:01N 50°39' W 001°49'0 0.2
2020-Sep-12 20:31N 50°39' W 001°49'0 0.0
2020-Sep-12 19:30N 50°39' W 001°49'0 0.0
2020-Sep-12 17:31N 50°39' W 001°49'0 0.0
2020-Sep-12 16:00N 50°39' W 001°49'0 0.1
2020-Sep-12 15:30N 50°39' W 001°49'0 0.0
2020-Sep-12 14:28N 50°39' W 001°49'0 0.0
2020-Sep-12 10:00N 50°39' W 001°49'0 0.0
2020-Sep-12 08:31N 50°39' W 001°49'0 0.0
2020-Sep-12 06:30N 50°39' W 001°49'0 0.0
2020-Sep-12 05:01N 50°39' W 001°49'0 0.0
2020-Sep-12 04:31N 50°39' W 001°49'0 0.0
2020-Sep-12 01:30N 50°39' W 001°49'0 0.0
2020-Sep-12 00:00N 50°39' W 001°49'0 0.0
2020-Sep-11 22:31N 50°39' W 001°49'0 0.0
2020-Sep-11 19:01N 50°39' W 001°49'0 0.0
2020-Sep-11 11:00N 50°39' W 001°49'0 0.0
2020-Sep-11 09:00N 50°39' W 001°49'0 0.0
2020-Sep-11 08:31N 50°39' W 001°49'0 0.0
2020-Sep-11 08:00N 50°39' W 001°49'0 0.0
2020-Sep-11 06:31N 50°39' W 001°49'0 0.0
2020-Sep-11 06:00N 50°39' W 001°49'0 0.0
2020-Sep-11 04:01N 50°39' W 001°49'0 0.0
2020-Sep-11 03:30N 50°39' W 001°49'0 0.0
2020-Sep-10 23:31N 50°39' W 001°49'0 0.0
2020-Sep-10 22:01N 50°39' W 001°49'0 0.0
2020-Sep-10 21:30N 50°39' W 001°49'0 0.0
2020-Sep-10 21:00N 50°39' W 001°49'0 0.0
2020-Sep-10 19:30N 50°39' W 001°49'0 0.0
2020-Sep-10 14:30N 50°39' W 001°49'0 0.0
2020-Sep-10 11:31N 50°39' W 001°49'0 0.0
2020-Sep-10 11:00N 50°39' W 001°49'0 0.0
2020-Sep-10 09:28N 50°39' W 001°49'0 0.0
2020-Sep-10 08:00N 50°39' W 001°49'0 0.0
2020-Sep-10 04:56N 50°39' W 001°49'0 0.0
2020-Sep-10 03:26N 50°39' W 001°49'0 0.0
2020-Sep-10 01:26N 50°39' W 001°49'0 0.0
2020-Sep-09 22:56N 50°39' W 001°49'0 0.0
2020-Sep-09 19:26N 50°39' W 001°49'0 0.1
2020-Sep-09 17:56N 50°39' W 001°49'0 0.0
2020-Sep-09 17:26N 50°39' W 001°49'0 0.0
2020-Sep-09 15:56N 50°39' W 001°49'0 0.0
2020-Sep-09 12:56N 50°39' W 001°49'0 0.0
2020-Sep-09 10:56N 50°39' W 001°49'0 0.0
2020-Sep-09 09:26N 50°39' W 001°49'0 0.0
2020-Sep-09 08:56N 50°39' W 001°49'0 0.0
2020-Sep-09 07:56N 50°39' W 001°49'0 0.0
2020-Sep-09 06:56N 50°39' W 001°49'0 0.0
2020-Sep-09 05:56N 50°39' W 001°49'0 0.0
2020-Sep-09 02:56N 50°39' W 001°49'0 0.0
2020-Sep-09 01:56N 50°39' W 001°49'0 0.0
2020-Sep-09 00:56N 50°39' W 001°49'0 0.0
2020-Sep-09 00:26N 50°39' W 001°49'0 0.0
2020-Sep-08 23:26N 50°39' W 001°49'0 0.0
2020-Sep-08 18:56N 50°39' W 001°49'0 0.0
2020-Sep-08 16:26N 50°39' W 001°49'0 0.0
2020-Sep-08 15:26N 50°39' W 001°49'0 0.1
2020-Sep-08 14:26N 50°39' W 001°49'0 0.0
2020-Sep-08 13:26N 50°39' W 001°49'0 0.0
2020-Sep-08 12:56N 50°39' W 001°49'0 0.0
2020-Sep-08 08:56N 50°39' W 001°49'0 0.0
2020-Sep-08 07:56N 50°39' W 001°49'  
Track history (hours):
 
Tides and Currents Weather Stations Pressure Air Temp Water Temp Dewpoint Dewpoint Depression Visibility Wind Speed Wind Dir Waves Ship Positions

Anthem Of The Seas

Last reported at 2020-Sep-18 07:21 UTC. Time now 2020-Sep-18 07:44 UTC.
Position N 50°39' W 001°49'.

Length 348 m; draft 8.8 m.

Type: Passenger vessel. MMSI: 311000274.

Date/timePositionNaut miles runAvg speedWind from/ knotsBaromVisibWave heightAir tempDewpointWater temp
2020-Sep-18 07:21N 50°39' W 001°49'0 0.0
2020-Sep-18 06:57N 50°39' W 001°49'0 0.0
2020-Sep-18 04:57N 50°39' W 001°49'0 0.0
2020-Sep-18 02:57N 50°39' W 001°49'0 0.0
2020-Sep-18 01:27N 50°39' W 001°49'0 0.0
2020-Sep-18 00:57N 50°39' W 001°49'0 0.0
2020-Sep-17 19:27N 50°39' W 001°49'0 0.0
2020-Sep-17 16:57N 50°39' W 001°49'0 0.0
2020-Sep-17 15:27N 50°39' W 001°49'0 0.0
2020-Sep-17 14:27N 50°39' W 001°49'0 0.0
2020-Sep-17 11:57N 50°39' W 001°49'0 0.0
2020-Sep-17 07:57N 50°39' W 001°49'0 0.1
2020-Sep-17 07:27N 50°39' W 001°49'0 0.0
2020-Sep-17 06:57N 50°39' W 001°49'0 0.2
2020-Sep-17 06:27N 50°39' W 001°49'0 0.0
2020-Sep-17 03:27N 50°39' W 001°49'0 0.0
2020-Sep-17 02:57N 50°39' W 001°49'0 0.0
2020-Sep-17 01:27N 50°39' W 001°49'0 0.0
2020-Sep-17 00:51N 50°39' W 001°49'0 0.0
2020-Sep-17 00:27N 50°39' W 001°49'0 0.0
2020-Sep-16 23:57N 50°39' W 001°49'0 0.1
2020-Sep-16 20:27N 50°39' W 001°49'0 0.0
2020-Sep-16 18:27N 50°39' W 001°49'0 0.0
2020-Sep-16 17:57N 50°39' W 001°49'0 0.0
2020-Sep-16 16:57N 50°39' W 001°49'0 0.1
2020-Sep-16 16:27N 50°39' W 001°49'0 0.0
2020-Sep-16 11:57N 50°39' W 001°49'0 0.0
2020-Sep-16 06:57N 50°39' W 001°49'0 0.0
2020-Sep-16 04:57N 50°39' W 001°49'0 0.0
2020-Sep-16 04:27N 50°39' W 001°49'0 0.0
2020-Sep-16 03:57N 50°39' W 001°49'0 0.0
2020-Sep-16 02:57N 50°39' W 001°49'0 0.0
2020-Sep-15 23:57N 50°39' W 001°49'0 0.0
2020-Sep-15 23:27N 50°39' W 001°49'0 0.1
2020-Sep-15 22:27N 50°39' W 001°49'17 8.9
2020-Sep-15 20:30N 50°32' W 001°25'22 2.5
2020-Sep-15 11:36N 50°54' W 001°25'0 0.0
2020-Sep-15 09:28N 50°54' W 001°25'0 0.0
2020-Sep-15 07:12N 50°54' W 001°25'0 0.0
2020-Sep-15 05:30N 50°54' W 001°25'17 6.9
2020-Sep-15 03:00N 50°44' W 001°03'9 8.6
2020-Sep-15 02:00N 50°36' W 000°59'32 6.4
2020-Sep-14 21:00N 50°06' W 001°18'7 7.0
2020-Sep-14 20:00N 50°04' W 001°28'46 8.4
2020-Sep-14 14:31N 49°52' W 002°38'14 7.1
2020-Sep-14 12:30N 49°57' W 002°58'3313.2
2020-Sep-14 10:00N 50°11' W 002°12'31 9.0
2020-Sep-14 06:30N 50°39' W 001°49'0 0.0
2020-Sep-14 05:30N 50°39' W 001°49'0 0.0
2020-Sep-14 05:01N 50°39' W 001°49'0 0.0
2020-Sep-14 04:01N 50°39' W 001°49'0 0.1
2020-Sep-14 03:30N 50°39' W 001°49'0 0.1
2020-Sep-14 03:00N 50°39' W 001°49'0 0.0
2020-Sep-14 02:31N 50°39' W 001°49'0 0.0
2020-Sep-14 02:00N 50°39' W 001°49'0 0.0
2020-Sep-14 01:00N 50°39' W 001°49'0 0.0
2020-Sep-13 22:31N 50°39' W 001°49'0 0.0
2020-Sep-13 22:01N 50°39' W 001°49'0 0.0
2020-Sep-13 21:31N 50°39' W 001°49'0 0.0
2020-Sep-13 16:01N 50°39' W 001°49'0 0.0
2020-Sep-13 15:31N 50°39' W 001°49'0 0.0
2020-Sep-13 14:31N 50°39' W 001°49'0 0.0
2020-Sep-13 13:30N 50°39' W 001°49'0 0.0
2020-Sep-13 09:01N 50°39' W 001°49'0 0.0
2020-Sep-13 08:31N 50°39' W 001°49'0 0.0
2020-Sep-13 05:00N 50°39' W 001°49'0 0.0
2020-Sep-13 04:30N 50°39' W 001°49'0 0.0
2020-Sep-13 04:00N 50°39' W 001°49'0 0.0
2020-Sep-13 02:01N 50°39' W 001°49'0 0.0
2020-Sep-12 23:30N 50°39' W 001°49'0 0.0
2020-Sep-12 21:01N 50°39' W 001°49'0 0.2
2020-Sep-12 20:31N 50°39' W 001°49'0 0.0
2020-Sep-12 19:30N 50°39' W 001°49'0 0.0
2020-Sep-12 17:31N 50°39' W 001°49'0 0.0
2020-Sep-12 16:00N 50°39' W 001°49'0 0.1
2020-Sep-12 15:30N 50°39' W 001°49'0 0.0
2020-Sep-12 14:28N 50°39' W 001°49'0 0.0
2020-Sep-12 10:00N 50°39' W 001°49'0 0.0
2020-Sep-12 08:31N 50°39' W 001°49'0 0.0
2020-Sep-12 06:30N 50°39' W 001°49'0 0.0
2020-Sep-12 05:01N 50°39' W 001°49'0 0.0
2020-Sep-12 04:31N 50°39' W 001°49'0 0.0
2020-Sep-12 01:30N 50°39' W 001°49'0 0.0
2020-Sep-12 00:00N 50°39' W 001°49'0 0.0
2020-Sep-11 22:31N 50°39' W 001°49'0 0.0
2020-Sep-11 19:01N 50°39' W 001°49'0 0.0
2020-Sep-11 11:00N 50°39' W 001°49'0 0.0
2020-Sep-11 09:00N 50°39' W 001°49'0 0.0
2020-Sep-11 08:31N 50°39' W 001°49'0 0.0
2020-Sep-11 08:00N 50°39' W 001°49'0 0.0
2020-Sep-11 06:31N 50°39' W 001°49'0 0.0
2020-Sep-11 06:00N 50°39' W 001°49'0 0.0
2020-Sep-11 04:01N 50°39' W 001°49'0 0.0
2020-Sep-11 03:30N 50°39' W 001°49'0 0.0
2020-Sep-10 23:31N 50°39' W 001°49'0 0.0
2020-Sep-10 22:01N 50°39' W 001°49'0 0.0
2020-Sep-10 21:30N 50°39' W 001°49'0 0.0
2020-Sep-10 21:00N 50°39' W 001°49'0 0.0
2020-Sep-10 19:30N 50°39' W 001°49'0 0.0
2020-Sep-10 14:30N 50°39' W 001°49'0 0.0
2020-Sep-10 11:31N 50°39' W 001°49'0 0.0
2020-Sep-10 11:00N 50°39' W 001°49'0 0.0
2020-Sep-10 09:28N 50°39' W 001°49'0 0.0
2020-Sep-10 08:00N 50°39' W 001°49'0 0.0
2020-Sep-10 04:56N 50°39' W 001°49'0 0.0
2020-Sep-10 03:26N 50°39' W 001°49'0 0.0
2020-Sep-10 01:26N 50°39' W 001°49'0 0.0
2020-Sep-09 22:56N 50°39' W 001°49'0 0.0
2020-Sep-09 19:26N 50°39' W 001°49'0 0.1
2020-Sep-09 17:56N 50°39' W 001°49'0 0.0
2020-Sep-09 17:26N 50°39' W 001°49'0 0.0
2020-Sep-09 15:56N 50°39' W 001°49'0 0.0
2020-Sep-09 12:56N 50°39' W 001°49'0 0.0
2020-Sep-09 10:56N 50°39' W 001°49'0 0.0
2020-Sep-09 09:26N 50°39' W 001°49'0 0.0
2020-Sep-09 08:56N 50°39' W 001°49'0 0.0
2020-Sep-09 07:56N 50°39' W 001°49'0 0.0
2020-Sep-09 06:56N 50°39' W 001°49'0 0.0
2020-Sep-09 05:56N 50°39' W 001°49'0 0.0
2020-Sep-09 02:56N 50°39' W 001°49'0 0.0
2020-Sep-09 01:56N 50°39' W 001°49'0 0.0
2020-Sep-09 00:56N 50°39' W 001°49'0 0.0
2020-Sep-09 00:26N 50°39' W 001°49'0 0.0
2020-Sep-08 23:26N 50°39' W 001°49'0 0.0
2020-Sep-08 18:56N 50°39' W 001°49'0 0.0
2020-Sep-08 16:26N 50°39' W 001°49'0 0.0
2020-Sep-08 15:26N 50°39' W 001°49'0 0.1
2020-Sep-08 14:26N 50°39' W 001°49'0 0.0
2020-Sep-08 13:26N 50°39' W 001°49'0 0.0
2020-Sep-08 12:56N 50°39' W 001°49'0 0.0
2020-Sep-08 08:56N 50°39' W 001°49'0 0.0
2020-Sep-08 07:56N 50°39' W 001°49'  

Dump ship's entire track history